Terminal Aerodrome Forecast
Issued by NWS Shreveport, LA

Home | Current Version | Previous Version | Text Only | Print | Product List | Glossary On
Versions: 1 2 3 4 5 6 7 8 9 10 11 12 13 14 15 16 17 18 19 20 21 22
000
FTUS44 KSHV 210524
TAFLFK
TAF
KLFK 210524Z 2106/2206 14004KT P6SM SCT010 SCT250
      TEMPO 2106/2109 5SM BR BKN009
     FM210900 15003KT 5SM BR BKN009
      TEMPO 2109/2113 2SM BR BKN005
     FM211300 16003KT 5SM BR BKN010
      TEMPO 2113/2116 P6SM NSW BKN025
     FM211600 16007KT P6SM BKN025
     FM211800 16008KT P6SM SCT035 SCT045 SCT250
     FM220000 15005KT P6SM FEW050 SCT250=

USA.gov is the U.S. government's official web portal to all federal, state and local government web resources and services.